createdAt,value
2016-03-29T00:00:41.427Z,0
2016-03-29T00:01:41.430Z,0
2016-03-29T00:02:54.230Z,0
2016-03-29T00:03:54.233Z,0
2016-03-29T00:05:06.489Z,0
2016-03-29T00:05:41.473Z,0
2016-03-29T00:07:51.072Z,0
2016-03-29T00:09:10.374Z,0
2016-03-29T00:09:51.108Z,0
2016-03-29T00:11:53.770Z,0
2016-03-29T00:12:32.022Z,0
2016-03-29T00:13:06.353Z,0
2016-03-29T00:14:32.044Z,0
2016-03-29T00:15:06.218Z,0
2016-03-29T00:16:06.392Z,0
2016-03-29T00:17:06.410Z,0
2016-03-29T00:18:07.851Z,0
2016-03-29T00:19:07.072Z,0
2016-03-29T00:20:07.278Z,0
2016-03-29T00:21:07.890Z,0
2016-03-29T00:22:19.221Z,0
2016-03-29T00:23:07.129Z,0
2016-03-29T00:24:06.524Z,0
2016-03-29T00:25:19.307Z,0
2016-03-29T00:26:19.295Z,0
2016-03-29T00:27:19.343Z,0
2016-03-29T00:28:06.565Z,0
2016-03-29T00:29:06.599Z,0
2016-03-29T00:30:06.648Z,0
2016-03-29T00:31:06.636Z,0
2016-03-29T00:32:06.731Z,0
2016-03-29T00:33:06.735Z,0
2016-03-29T00:34:13.019Z,0
2016-03-29T00:35:06.678Z,0
2016-03-29T00:36:06.712Z,0
2016-03-29T00:37:06.745Z,0
2016-03-29T00:38:06.748Z,0
2016-03-29T00:39:06.735Z,0
2016-03-29T00:40:07.583Z,0
2016-03-29T00:41:07.303Z,0
2016-03-29T00:42:06.806Z,0
2016-03-29T00:43:19.543Z,0
2016-03-29T00:44:07.452Z,0
2016-03-29T00:45:19.580Z,0
2016-03-29T00:46:19.613Z,0
2016-03-29T00:47:26.211Z,0
2016-03-29T00:48:26.119Z,0
2016-03-29T00:49:06.919Z,0
2016-03-29T00:50:06.952Z,0
2016-03-29T00:51:07.112Z,0
2016-03-29T00:52:06.974Z,0
2016-03-29T00:53:13.257Z,0
2016-03-29T00:54:07.198Z,0
2016-03-29T00:55:07.044Z,0
2016-03-29T00:56:07.047Z,0
2016-03-29T00:57:07.049Z,0
2016-03-29T00:58:07.084Z,0
2016-03-29T00:59:07.087Z,0
2016-03-29T01:00:13.354Z,0
2016-03-29T01:01:07.122Z,0
2016-03-29T01:02:26.345Z,0
2016-03-29T01:03:07.159Z,0
2016-03-29T01:04:26.506Z,0
2016-03-29T01:05:07.164Z,0
2016-03-29T01:06:07.261Z,0
2016-03-29T01:07:13.483Z,0
2016-03-29T01:08:06.569Z,0
2016-03-29T01:09:07.243Z,0
2016-03-29T01:10:07.261Z,0
2016-03-29T01:11:07.467Z,0
2016-03-29T01:12:07.282Z,0
2016-03-29T01:13:07.300Z,0
2016-03-29T01:14:07.335Z,0
2016-03-29T01:15:07.400Z,0
2016-03-29T01:16:08.777Z,0
2016-03-29T01:17:07.405Z,0
2016-03-29T01:18:07.361Z,0
2016-03-29T01:19:07.457Z,0
2016-03-29T01:20:07.413Z,0
2016-03-29T01:21:07.587Z,0
2016-03-29T01:22:07.450Z,0
2016-03-29T01:23:07.546Z,0
2016-03-29T01:24:20.221Z,0
2016-03-29T01:25:07.536Z,0
2016-03-29T01:26:07.632Z,0
2016-03-29T01:27:07.526Z,0
2016-03-29T01:28:20.278Z,0
2016-03-29T01:29:07.578Z,0
2016-03-29T01:30:26.768Z,0
2016-03-29T01:31:09.005Z,0
2016-03-29T01:32:33.273Z,0
2016-03-29T01:33:07.620Z,0
2016-03-29T01:34:14.592Z,0
2016-03-29T01:35:07.641Z,0
2016-03-29T01:36:07.736Z,0
2016-03-29T01:37:20.427Z,0
2016-03-29T01:38:14.586Z,0
2016-03-29T01:39:07.730Z,0
2016-03-29T01:41:04.813Z,0
2016-03-29T01:41:17.360Z,0
2016-03-29T01:42:17.378Z,0
2016-03-29T01:43:17.413Z,0
2016-03-29T01:44:17.430Z,0
2016-03-29T01:45:17.449Z,0
2016-03-29T01:46:30.186Z,0
2016-03-29T01:47:17.470Z,0
2016-03-29T01:48:30.238Z,0
2016-03-29T01:49:17.771Z,0
2016-03-29T01:50:17.525Z,0
2016-03-29T01:51:30.277Z,0
2016-03-29T01:52:30.280Z,0
2016-03-29T01:53:17.565Z,0
2016-03-29T01:54:17.567Z,0
2016-03-29T01:55:18.210Z,0
2016-03-29T01:56:17.759Z,0
2016-03-29T01:57:17.638Z,0
2016-03-29T01:58:19.078Z,0
2016-03-29T01:59:17.706Z,0
2016-03-29T02:00:17.692Z,0
2016-03-29T02:01:18.398Z,0
2016-03-29T02:02:30.589Z,0
2016-03-29T02:03:17.731Z,0
2016-03-29T02:04:30.484Z,0
2016-03-29T02:05:18.378Z,0
2016-03-29T02:06:17.818Z,0
2016-03-29T02:07:17.774Z,0
2016-03-29T02:08:17.823Z,0
2016-03-29T02:09:18.451Z,0
2016-03-29T02:10:17.845Z,0
2016-03-29T02:11:30.644Z,0
2016-03-29T02:12:30.615Z,0
2016-03-29T02:13:17.915Z,0
2016-03-29T02:14:17.886Z,0
2016-03-29T02:15:18.030Z,0
2016-03-29T02:16:17.955Z,0
2016-03-29T02:17:17.958Z,0
2016-03-29T02:18:17.991Z,0
2016-03-29T02:19:18.181Z,0
2016-03-29T02:20:24.309Z,0
2016-03-29T02:21:18.233Z,0
2016-03-29T02:22:18.032Z,0
2016-03-29T02:23:18.051Z,0
2016-03-29T02:24:18.069Z,0
2016-03-29T02:25:24.338Z,0
2016-03-29T02:26:18.606Z,0
2016-03-29T02:27:18.124Z,0
2016-03-29T02:28:18.127Z,0
2016-03-29T02:29:24.629Z,0
2016-03-29T02:30:18.179Z,0
2016-03-29T02:31:18.166Z,0
2016-03-29T02:32:24.544Z,0
2016-03-29T02:33:24.515Z,0
2016-03-29T02:34:18.206Z,0
2016-03-29T02:35:18.255Z,0
2016-03-29T02:36:18.258Z,0
2016-03-29T02:37:18.261Z,0
2016-03-29T02:38:18.278Z,0
2016-03-29T02:39:18.297Z,0
2016-03-29T02:40:18.331Z,0
2016-03-29T02:41:18.569Z,0
2016-03-29T02:42:24.618Z,0
2016-03-29T02:43:18.386Z,0
2016-03-29T02:44:18.374Z,0
2016-03-29T02:45:24.658Z,0
2016-03-29T02:46:18.957Z,0
2016-03-29T02:47:18.568Z,0
2016-03-29T02:48:19.869Z,0
2016-03-29T02:49:18.465Z,0
2016-03-29T02:50:18.452Z,0
2016-03-29T02:51:31.205Z,0
2016-03-29T02:52:18.521Z,0
2016-03-29T02:53:44.179Z,0
2016-03-29T02:54:24.790Z,0
2016-03-29T02:55:49.887Z,0
2016-03-29T02:56:31.374Z,0
2016-03-29T02:57:49.893Z,0
2016-03-29T02:58:18.676Z,0
2016-03-29T02:59:18.601Z,0
2016-03-29T03:00:18.729Z,0
2016-03-29T03:01:31.373Z,0
2016-03-29T03:02:18.734Z,0
2016-03-29T03:03:18.675Z,0
2016-03-29T03:04:31.474Z,0
2016-03-29T03:05:20.164Z,0
2016-03-29T03:06:31.495Z,0
2016-03-29T03:07:18.748Z,0
2016-03-29T03:09:15.722Z,0
2016-03-29T03:09:28.284Z,0
2016-03-29T03:10:41.036Z,0
2016-03-29T03:11:34.508Z,0
2016-03-29T03:12:28.324Z,0
2016-03-29T03:13:28.341Z,0
2016-03-29T03:14:28.375Z,0
2016-03-29T03:15:28.769Z,0
2016-03-29T03:16:34.663Z,0
2016-03-29T03:17:28.571Z,0
2016-03-29T03:18:40.715Z,0
2016-03-29T03:19:28.577Z,0
2016-03-29T03:20:28.454Z,0
2016-03-29T03:21:28.504Z,0
2016-03-29T03:22:28.506Z,0
2016-03-29T03:23:28.557Z,0
2016-03-29T03:24:28.512Z,0
2016-03-29T03:25:28.765Z,0
2016-03-29T03:26:28.487Z,0
2016-03-29T03:27:28.582Z,0
2016-03-29T03:28:28.601Z,0
2016-03-29T03:29:30.025Z,0
2016-03-29T03:30:28.700Z,0
2016-03-29T03:31:28.734Z,0
2016-03-29T03:32:28.893Z,0
2016-03-29T03:33:28.755Z,0
2016-03-29T03:34:29.070Z,0
2016-03-29T03:35:41.417Z,0
2016-03-29T03:36:28.888Z,0
2016-03-29T03:37:47.923Z,0
2016-03-29T03:38:35.675Z,0
2016-03-29T03:39:54.600Z,0
2016-03-29T03:40:28.930Z,0
2016-03-29T03:41:28.917Z,0
2016-03-29T03:42:41.530Z,0
2016-03-29T03:43:30.235Z,0
2016-03-29T03:44:28.847Z,0
2016-03-29T03:45:41.599Z,0
2016-03-29T03:46:28.900Z,0
2016-03-29T03:47:48.105Z,0
2016-03-29T03:48:41.639Z,0
2016-03-29T03:49:54.580Z,0
2016-03-29T03:50:48.129Z,0
2016-03-29T03:51:55.210Z,0
2016-03-29T03:52:41.696Z,0
2016-03-29T03:53:28.966Z,0
2016-03-29T03:54:41.733Z,0
2016-03-29T03:55:41.735Z,0
2016-03-29T03:56:48.207Z,0
2016-03-29T03:57:48.085Z,0
2016-03-29T03:58:29.072Z,0
2016-03-29T03:59:29.076Z,0
2016-03-29T04:00:29.234Z,0
2016-03-29T04:01:29.112Z,0
2016-03-29T04:02:29.989Z,0
2016-03-29T04:03:29.132Z,0
2016-03-29T04:04:29.214Z,0
2016-03-29T04:05:29.841Z,0
2016-03-29T04:06:29.312Z,0
2016-03-29T04:07:29.205Z,0
2016-03-29T04:08:35.693Z,0
2016-03-29T04:09:35.539Z,0
2016-03-29T04:10:29.230Z,0
2016-03-29T04:11:41.998Z,0
2016-03-29T04:12:35.531Z,0
2016-03-29T04:13:29.284Z,0
2016-03-29T04:14:41.850Z,0
2016-03-29T04:15:42.196Z,0
2016-03-29T04:16:29.949Z,0
2016-03-29T04:17:48.591Z,0
2016-03-29T04:18:42.111Z,0
2016-03-29T04:19:55.097Z,0
2016-03-29T04:20:32.428Z,0
2016-03-29T04:22:07.012Z,0
2016-03-29T04:22:29.433Z,0
2016-03-29T04:23:29.452Z,0
2016-03-29T04:24:29.470Z,0
2016-03-29T04:25:29.488Z,0
2016-03-29T04:26:42.273Z,0
2016-03-29T04:27:29.541Z,0
2016-03-29T04:28:29.560Z,0
2016-03-29T04:29:35.952Z,0
2016-03-29T04:30:29.674Z,0
2016-03-29T04:31:42.333Z,0
2016-03-29T04:32:29.882Z,0
2016-03-29T04:34:26.920Z,0
2016-03-29T04:34:39.529Z,0
2016-03-29T04:35:39.484Z,0
2016-03-29T04:36:39.518Z,0
2016-03-29T04:37:45.865Z,0
2016-03-29T04:38:39.555Z,0
2016-03-29T04:39:39.558Z,0
2016-03-29T04:40:39.592Z,0
2016-03-29T04:41:39.610Z,0
2016-03-29T04:42:39.597Z,0
2016-03-29T04:43:45.959Z,0
2016-03-29T04:44:45.914Z,0
2016-03-29T04:45:41.074Z,0
2016-03-29T04:46:58.873Z,0
2016-03-29T04:47:46.033Z,0
2016-03-29T04:49:05.378Z,0
2016-03-29T04:49:52.428Z,0
2016-03-29T04:51:11.011Z,0
2016-03-29T04:51:58.965Z,0
2016-03-29T04:53:11.096Z,0
2016-03-29T04:54:36.770Z,0
2016-03-29T04:54:49.755Z,0
2016-03-29T04:55:49.257Z,0
2016-03-29T04:56:50.088Z,0
2016-03-29T04:57:49.357Z,0
2016-03-29T04:58:49.281Z,0
2016-03-29T05:00:02.018Z,0
2016-03-29T05:00:50.099Z,0
2016-03-29T05:01:49.773Z,0
2016-03-29T05:02:55.807Z,0
2016-03-29T05:04:02.091Z,5
2016-03-29T05:04:49.375Z,5
2016-03-29T05:06:02.111Z,5
2016-03-29T05:07:02.177Z,5
2016-03-29T05:08:15.261Z,5
2016-03-29T05:08:49.495Z,5
2016-03-29T05:09:49.467Z,10
2016-03-29T05:10:49.501Z,10
2016-03-29T05:11:49.487Z,10
2016-03-29T05:12:49.411Z,10
2016-03-29T05:13:49.556Z,10
2016-03-29T05:14:49.558Z,10
2016-03-29T05:15:49.638Z,10
2016-03-29T05:16:49.578Z,10
2016-03-29T05:17:49.613Z,10
2016-03-29T05:18:49.600Z,10
2016-03-29T05:19:49.790Z,10
2016-03-29T05:20:49.622Z,15
2016-03-29T05:21:52.749Z,15
2016-03-29T05:22:49.674Z,15
2016-03-29T05:24:02.410Z,15
2016-03-29T05:24:49.991Z,15
2016-03-29T05:26:08.918Z,15
2016-03-29T05:26:51.152Z,20
2016-03-29T05:29:05.580Z,20
2016-03-29T05:29:59.411Z,25
2016-03-29T05:31:12.088Z,25
2016-03-29T05:31:59.448Z,25
2016-03-29T05:34:09.159Z,30
2016-03-29T05:34:21.799Z,30
2016-03-29T05:35:21.739Z,30
2016-03-29T05:36:22.368Z,30
2016-03-29T05:37:28.057Z,30
2016-03-29T05:38:21.794Z,30
2016-03-29T05:39:21.812Z,35
2016-03-29T05:40:28.112Z,35
2016-03-29T05:41:28.630Z,40
2016-03-29T05:42:21.898Z,45
2016-03-29T05:43:21.964Z,50
2016-03-29T05:44:21.888Z,50
2016-03-29T05:45:22.000Z,55
2016-03-29T05:46:21.925Z,55
2016-03-29T05:47:21.944Z,55
2016-03-29T05:48:28.243Z,60
2016-03-29T05:49:21.996Z,60
2016-03-29T05:50:22.013Z,55
2016-03-29T05:51:22.033Z,50
2016-03-29T05:52:22.035Z,50
2016-03-29T05:53:22.053Z,55
2016-03-29T05:54:22.275Z,50
2016-03-29T05:55:22.075Z,45
2016-03-29T05:56:22.124Z,45
2016-03-29T05:57:22.110Z,50
2016-03-29T05:58:22.191Z,55
2016-03-29T05:59:22.148Z,55
2016-03-29T06:00:22.165Z,60
2016-03-29T06:01:22.184Z,65
2016-03-29T06:02:22.187Z,70
2016-03-29T06:03:22.205Z,70
2016-03-29T06:04:22.208Z,80
2016-03-29T06:05:22.226Z,80
2016-03-29T06:06:22.260Z,90
2016-03-29T06:07:22.435Z,100
2016-03-29T06:08:22.297Z,110
2016-03-29T06:09:22.331Z,125
2016-03-29T06:10:22.337Z,160
2016-03-29T06:11:22.388Z,260
2016-03-29T06:12:22.358Z,330
2016-03-29T06:13:22.377Z,335
2016-03-29T06:14:22.411Z,425
2016-03-29T06:15:22.398Z,470
2016-03-29T06:16:22.432Z,495
2016-03-29T06:17:22.465Z,480
2016-03-29T06:18:35.219Z,370
2016-03-29T06:19:23.127Z,405
2016-03-29T06:20:35.224Z,390
2016-03-29T06:21:24.132Z,255
2016-03-29T06:22:22.635Z,235
2016-03-29T06:23:35.653Z,220
2016-03-29T06:24:28.937Z,215
2016-03-29T06:25:41.940Z,205
2016-03-29T06:26:29.521Z,200
2016-03-29T06:27:48.180Z,190
2016-03-29T06:28:36.042Z,185
2016-03-29T06:29:54.028Z,185
2016-03-29T06:30:41.907Z,185
2016-03-29T06:31:22.722Z,190
2016-03-29T06:33:26.571Z,185
2016-03-29T06:33:39.133Z,185
2016-03-29T06:34:39.199Z,175
2016-03-29T06:35:51.889Z,165
2016-03-29T06:36:51.750Z,160
2016-03-29T06:38:36.210Z,160
2016-03-29T06:39:14.478Z,170
2016-03-29T06:40:01.509Z,180
2016-03-29T06:41:39.343Z,195
2016-03-29T06:41:52.421Z,195
2016-03-29T06:43:48.941Z,190
2016-03-29T06:44:01.504Z,185
2016-03-29T06:45:32.837Z,175
2016-03-29T06:46:01.540Z,175
2016-03-29T06:47:01.560Z,170
2016-03-29T06:48:14.330Z,175
2016-03-29T06:49:02.190Z,165
2016-03-29T06:51:04.742Z,160
2016-03-29T06:53:14.329Z,160
2016-03-29T06:54:27.087Z,170
2016-03-29T06:55:27.057Z,170
2016-03-29T06:56:27.934Z,175
2016-03-29T06:57:40.107Z,180
2016-03-29T06:58:27.093Z,195
2016-03-29T06:59:46.270Z,215
2016-03-29T07:00:33.563Z,240
2016-03-29T07:02:36.181Z,325
2016-03-29T07:03:14.459Z,370
2016-03-29T07:03:48.756Z,360
2016-03-29T07:05:51.380Z,250
2016-03-29T07:06:23.271Z,240
2016-03-29T07:07:03.974Z,185
2016-03-29T07:09:06.445Z,180
2016-03-29T07:09:44.711Z,185
2016-03-29T07:10:19.010Z,190
2016-03-29T07:12:10.402Z,180
2016-03-29T07:12:25.998Z,170
2016-03-29T07:14:25.674Z,155
2016-03-29T07:14:57.455Z,155
2016-03-29T07:15:38.254Z,160
2016-03-29T07:17:40.884Z,170
2016-03-29T07:17:53.446Z,175
2016-03-29T07:18:53.543Z,185
2016-03-29T07:20:06.248Z,210
2016-03-29T07:20:53.501Z,235
2016-03-29T07:22:12.426Z,300
2016-03-29T07:22:53.537Z,335
2016-03-29T07:24:12.758Z,370
2016-03-29T07:24:54.215Z,485
2016-03-29T07:25:54.296Z,460
2016-03-29T07:27:00.298Z,410
2016-03-29T07:27:53.661Z,385
2016-03-29T07:28:55.303Z,400
2016-03-29T07:29:59.978Z,400
2016-03-29T07:31:01.512Z,400
2016-03-29T07:32:00.608Z,505
2016-03-29T07:32:52.955Z,485
2016-03-29T07:34:12.989Z,640
2016-03-29T07:34:53.788Z,455
2016-03-29T07:36:06.635Z,440
2016-03-29T07:36:54.419Z,415
2016-03-29T07:37:53.860Z,400
2016-03-29T07:39:06.613Z,385
2016-03-29T07:39:53.880Z,385
2016-03-29T07:40:54.118Z,390
2016-03-29T07:41:53.246Z,425
2016-03-29T07:42:53.935Z,530
2016-03-29T07:43:54.172Z,490
2016-03-29T07:44:54.049Z,565
2016-03-29T07:45:53.990Z,535
2016-03-29T07:46:54.071Z,565
2016-03-29T07:47:54.058Z,685
2016-03-29T07:48:54.310Z,700
2016-03-29T07:49:54.080Z,655
2016-03-29T07:50:54.066Z,680
2016-03-29T07:51:54.101Z,585
2016-03-29T07:52:54.103Z,530
2016-03-29T07:53:54.122Z,490
2016-03-29T07:54:54.202Z,470
2016-03-29T07:55:54.314Z,445
2016-03-29T07:57:00.583Z,425
2016-03-29T07:57:54.242Z,420
2016-03-29T07:58:54.260Z,430
2016-03-29T07:59:54.279Z,425
2016-03-29T08:00:54.156Z,410
2016-03-29T08:01:54.346Z,410
2016-03-29T08:02:55.756Z,440
2016-03-29T08:03:54.586Z,490
2016-03-29T08:04:54.683Z,520
2016-03-29T08:06:07.186Z,525
2016-03-29T08:06:54.532Z,525
2016-03-29T08:07:54.550Z,525
2016-03-29T08:08:55.084Z,470
2016-03-29T08:09:54.540Z,495
2016-03-29T08:10:54.589Z,515
2016-03-29T08:12:07.436Z,580
2016-03-29T08:12:54.657Z,615
2016-03-29T08:13:54.535Z,630
2016-03-29T08:15:07.428Z,585
2016-03-29T08:15:54.603Z,630
2016-03-29T08:16:54.716Z,590
2016-03-29T08:18:07.389Z,580
2016-03-29T08:18:54.799Z,580
2016-03-29T08:20:13.894Z,485
2016-03-29T08:20:54.788Z,430
2016-03-29T08:22:20.510Z,465
2016-03-29T08:22:54.794Z,455
2016-03-29T08:23:54.860Z,425
2016-03-29T08:25:07.549Z,365
2016-03-29T08:25:55.505Z,330
2016-03-29T08:27:20.679Z,370
2016-03-29T08:27:54.885Z,345
2016-03-29T08:29:14.123Z,320
2016-03-29T08:29:55.110Z,355
2016-03-29T08:30:54.940Z,345
2016-03-29T08:31:54.990Z,375
2016-03-29T08:32:54.992Z,425
2016-03-29T08:33:55.026Z,435
2016-03-29T08:34:55.107Z,430
2016-03-29T08:35:55.032Z,430
2016-03-29T08:36:55.332Z,420
2016-03-29T08:37:55.115Z,445
2016-03-29T08:39:01.384Z,460
2016-03-29T08:40:07.886Z,445
2016-03-29T08:41:01.420Z,455
2016-03-29T08:42:07.939Z,450
2016-03-29T08:42:55.238Z,450
2016-03-29T08:44:20.944Z,425
2016-03-29T08:44:55.243Z,415
2016-03-29T08:46:26.575Z,445
2016-03-29T08:46:55.467Z,430
2016-03-29T08:47:55.486Z,410
2016-03-29T08:48:55.333Z,340
2016-03-29T08:49:55.382Z,325
2016-03-29T08:50:55.353Z,385
2016-03-29T08:51:55.371Z,390
2016-03-29T08:52:55.422Z,355
2016-03-29T08:53:55.440Z,480
2016-03-29T08:54:55.458Z,400
2016-03-29T08:55:55.336Z,410
2016-03-29T08:56:55.541Z,475
2016-03-29T08:57:55.529Z,520
2016-03-29T08:58:55.579Z,500
2016-03-29T09:00:08.284Z,565
2016-03-29T09:00:56.193Z,500
2016-03-29T09:02:08.367Z,430
2016-03-29T09:02:56.229Z,450
2016-03-29T09:03:55.560Z,485
2016-03-29T09:05:08.423Z,390
2016-03-29T09:05:55.708Z,395
2016-03-29T09:06:55.726Z,440
2016-03-29T09:07:57.119Z,440
2016-03-29T09:09:08.527Z,425
2016-03-29T09:09:55.827Z,445
2016-03-29T09:11:14.846Z,380
2016-03-29T09:11:55.801Z,400
2016-03-29T09:12:55.851Z,420
2016-03-29T09:13:56.462Z,430
2016-03-29T09:14:55.887Z,395
2016-03-29T09:15:55.968Z,380
2016-03-29T09:16:55.893Z,375
2016-03-29T09:17:55.974Z,395
2016-03-29T09:18:55.945Z,445
2016-03-29T09:19:55.948Z,515
2016-03-29T09:20:55.997Z,505
2016-03-29T09:21:56.235Z,420
2016-03-29T09:22:56.112Z,370
2016-03-29T09:24:02.303Z,445
2016-03-29T09:24:56.150Z,395
2016-03-29T09:25:56.730Z,445
2016-03-29T09:26:56.139Z,505
2016-03-29T09:27:56.141Z,490
2016-03-29T09:28:56.347Z,435
2016-03-29T09:29:56.177Z,425
2016-03-29T09:30:56.243Z,365
2016-03-29T09:31:56.543Z,415
2016-03-29T09:32:56.092Z,385
2016-03-29T09:33:56.486Z,330
2016-03-29T09:34:56.286Z,345
2016-03-29T09:35:56.522Z,380
2016-03-29T09:36:56.338Z,360
2016-03-29T09:37:56.371Z,385
2016-03-29T09:38:56.452Z,380
2016-03-29T09:39:56.424Z,395
2016-03-29T09:40:56.410Z,510
2016-03-29T09:41:56.445Z,485
2016-03-29T09:43:02.743Z,470
2016-03-29T09:43:56.481Z,480
2016-03-29T09:44:56.484Z,435
2016-03-29T09:45:56.539Z,380
2016-03-29T09:46:56.573Z,330
2016-03-29T09:48:02.840Z,365
2016-03-29T09:48:56.640Z,365
2016-03-29T09:49:57.236Z,335
2016-03-29T09:50:56.645Z,330
2016-03-29T09:52:09.398Z,330
2016-03-29T09:52:56.666Z,315
2016-03-29T09:53:56.701Z,265
2016-03-29T09:54:57.453Z,200
2016-03-29T09:55:56.737Z,185
2016-03-29T09:57:09.428Z,235
2016-03-29T09:57:56.742Z,220
2016-03-29T09:58:59.808Z,215
2016-03-29T10:00:09.654Z,220
2016-03-29T10:01:09.547Z,245
2016-03-29T10:02:09.643Z,230
2016-03-29T10:03:09.599Z,250
2016-03-29T10:03:56.946Z,265
2016-03-29T10:04:56.917Z,315
2016-03-29T10:05:56.952Z,320
2016-03-29T10:06:56.985Z,255
2016-03-29T10:07:56.988Z,285
2016-03-29T10:08:57.007Z,305
2016-03-29T10:09:57.228Z,400
2016-03-29T10:10:57.152Z,395
2016-03-29T10:11:57.076Z,475
2016-03-29T10:12:56.549Z,455
2016-03-29T10:13:57.129Z,305
2016-03-29T10:14:57.210Z,255
2016-03-29T10:15:57.151Z,240
2016-03-29T10:16:57.168Z,220
2016-03-29T10:17:57.203Z,170
2016-03-29T10:18:57.221Z,155
2016-03-29T10:19:57.208Z,185
2016-03-29T10:20:57.258Z,205
2016-03-29T10:21:57.275Z,240
2016-03-29T10:22:57.309Z,285
2016-03-29T10:24:03.562Z,250
2016-03-29T10:24:57.925Z,300
2016-03-29T10:25:57.428Z,260
2016-03-29T10:26:57.367Z,250
2016-03-29T10:27:57.370Z,225
2016-03-29T10:29:03.700Z,215
2016-03-29T10:29:57.532Z,205
2016-03-29T10:30:57.455Z,200
2016-03-29T10:31:57.474Z,190
2016-03-29T10:32:57.493Z,165
2016-03-29T10:33:57.495Z,190
2016-03-29T10:34:57.529Z,210
2016-03-29T10:35:57.548Z,220
2016-03-29T10:36:57.659Z,260
2016-03-29T10:37:57.599Z,300
2016-03-29T10:38:57.806Z,335
2016-03-29T10:39:57.637Z,360
2016-03-29T10:40:57.780Z,415
2016-03-29T10:41:57.673Z,480
2016-03-29T10:42:57.785Z,530
2016-03-29T10:43:57.709Z,565
2016-03-29T10:44:57.759Z,545
2016-03-29T10:45:57.746Z,575
2016-03-29T10:46:57.764Z,600
2016-03-29T10:47:59.205Z,615
2016-03-29T10:49:10.536Z,615
2016-03-29T10:50:10.616Z,610
2016-03-29T10:50:57.853Z,610
2016-03-29T10:51:57.856Z,600
2016-03-29T10:52:57.906Z,595
2016-03-29T10:53:57.955Z,585
2016-03-29T10:54:57.975Z,565
2016-03-29T10:55:57.992Z,555
2016-03-29T10:56:57.964Z,540
2016-03-29T10:57:58.794Z,535
2016-03-29T10:58:58.829Z,545
2016-03-29T10:59:59.488Z,560
2016-03-29T11:00:58.225Z,560
2016-03-29T11:01:58.164Z,565
2016-03-29T11:02:58.277Z,565
2016-03-29T11:03:58.202Z,560
2016-03-29T11:04:58.204Z,540
2016-03-29T11:05:58.847Z,535
2016-03-29T11:06:58.193Z,525
2016-03-29T11:07:58.415Z,525
2016-03-29T11:08:58.215Z,510
2016-03-29T11:09:58.280Z,535
2016-03-29T11:10:58.298Z,475
2016-03-29T11:12:11.285Z,450
2016-03-29T11:12:58.304Z,565
2016-03-29T11:13:58.353Z,525
2016-03-29T11:14:58.356Z,535
2016-03-29T11:15:58.795Z,500
2016-03-29T11:16:59.064Z,490
2016-03-29T11:17:58.754Z,425
2016-03-29T11:19:04.695Z,365
2016-03-29T11:19:58.495Z,345
2016-03-29T11:21:11.215Z,310
2016-03-29T11:21:58.531Z,305
2016-03-29T11:23:17.753Z,225
2016-03-29T11:23:58.567Z,210
2016-03-29T11:25:29.914Z,345
2016-03-29T11:25:58.620Z,395
2016-03-29T11:27:29.951Z,405
2016-03-29T11:28:01.767Z,425
2016-03-29T11:29:30.003Z,470
2016-03-29T11:29:58.709Z,465
2016-03-29T11:31:04.977Z,445
2016-03-29T11:31:58.730Z,440
2016-03-29T11:32:58.795Z,435
2016-03-29T11:33:58.766Z,435
2016-03-29T11:35:00.238Z,355
2016-03-29T11:35:58.834Z,360
2016-03-29T11:37:18.119Z,320
2016-03-29T11:37:58.886Z,285
2016-03-29T11:39:24.546Z,190
2016-03-29T11:39:58.939Z,175
2016-03-29T11:41:30.238Z,185
2016-03-29T11:42:11.835Z,160
2016-03-29T11:42:59.009Z,165
2016-03-29T11:44:18.059Z,240
2016-03-29T11:44:59.029Z,305
2016-03-29T11:45:59.032Z,400
2016-03-29T11:47:11.817Z,465
2016-03-29T11:48:00.506Z,575
2016-03-29T11:49:18.369Z,645
2016-03-29T11:49:59.137Z,595
2016-03-29T11:51:24.921Z,670
2016-03-29T11:51:59.845Z,655
2016-03-29T11:53:56.258Z,605
2016-03-29T11:54:08.836Z,620
2016-03-29T11:55:34.557Z,615
2016-03-29T11:56:08.873Z,610
2016-03-29T11:58:11.534Z,590
2016-03-29T11:58:24.097Z,590
2016-03-29T11:59:24.427Z,565
2016-03-29T12:00:36.961Z,530
2016-03-29T12:01:37.042Z,520
2016-03-29T12:02:24.311Z,500
2016-03-29T12:03:24.297Z,460
2016-03-29T12:04:25.019Z,435
2016-03-29T12:05:24.380Z,410
2016-03-29T12:06:37.055Z,365
2016-03-29T12:07:24.383Z,370
2016-03-29T12:08:50.013Z,420
2016-03-29T12:09:24.951Z,420
2016-03-29T12:10:55.676Z,450
2016-03-29T12:11:24.410Z,455
2016-03-29T12:12:24.600Z,470
2016-03-29T12:13:37.165Z,425
2016-03-29T12:14:24.651Z,430
2016-03-29T12:15:43.733Z,435
2016-03-29T12:16:25.143Z,435
2016-03-29T12:17:24.364Z,350
2016-03-29T12:18:24.569Z,335
2016-03-29T12:19:37.306Z,365
2016-03-29T12:20:24.808Z,370
2016-03-29T12:21:24.608Z,350
2016-03-29T12:22:24.642Z,325
2016-03-29T12:23:24.661Z,355
2016-03-29T12:24:24.711Z,365
2016-03-29T12:25:24.870Z,375
2016-03-29T12:26:24.794Z,395
2016-03-29T12:27:24.859Z,415
2016-03-29T12:28:24.753Z,445
2016-03-29T12:29:24.817Z,445
2016-03-29T12:30:37.570Z,440
2016-03-29T12:31:37.667Z,430
2016-03-29T12:32:24.872Z,415
2016-03-29T12:33:24.938Z,385
2016-03-29T12:34:25.503Z,395
2016-03-29T12:35:24.943Z,390
2016-03-29T12:36:37.821Z,360
2016-03-29T12:37:24.979Z,390
2016-03-29T12:38:25.045Z,430
2016-03-29T12:39:25.048Z,440
2016-03-29T12:40:25.096Z,450
2016-03-29T12:41:25.099Z,450
2016-03-29T12:42:25.446Z,440
2016-03-29T12:43:37.871Z,450
2016-03-29T12:44:25.233Z,460
2016-03-29T12:45:44.393Z,485
2016-03-29T12:46:25.176Z,495
2016-03-29T12:47:50.932Z,475
2016-03-29T12:48:26.635Z,465
2016-03-29T12:49:56.640Z,485
2016-03-29T12:50:28.296Z,505
2016-03-29T12:51:25.940Z,515
2016-03-29T12:52:31.708Z,500
2016-03-29T12:53:25.445Z,465
2016-03-29T12:54:25.338Z,455
2016-03-29T12:55:25.387Z,435
2016-03-29T12:56:25.422Z,395
2016-03-29T12:57:38.252Z,325
2016-03-29T12:58:25.505Z,305
2016-03-29T12:59:25.492Z,335
2016-03-29T13:00:25.697Z,360
2016-03-29T13:01:25.560Z,350
2016-03-29T13:02:25.562Z,355
2016-03-29T13:03:25.565Z,370
2016-03-29T13:04:25.740Z,370
2016-03-29T13:05:31.930Z,395
2016-03-29T13:06:31.870Z,425
2016-03-29T13:07:38.404Z,400
2016-03-29T13:08:25.954Z,395
2016-03-29T13:09:25.738Z,340
2016-03-29T13:10:25.725Z,305
2016-03-29T13:11:38.477Z,255
2016-03-29T13:12:25.793Z,210
2016-03-29T13:13:25.796Z,185
2016-03-29T13:14:26.001Z,205
2016-03-29T13:15:26.051Z,225
2016-03-29T13:16:32.163Z,200
2016-03-29T13:17:32.165Z,165
2016-03-29T13:18:25.981Z,140
2016-03-29T13:19:25.984Z,110
2016-03-29T13:20:26.048Z,75
2016-03-29T13:21:26.004Z,65
2016-03-29T13:22:32.288Z,65
2016-03-29T13:23:26.072Z,65
2016-03-29T13:24:26.059Z,80
2016-03-29T13:25:26.062Z,95
2016-03-29T13:26:26.080Z,110
2016-03-29T13:27:26.098Z,125
2016-03-29T13:28:26.116Z,125
2016-03-29T13:29:26.166Z,140
2016-03-29T13:30:26.185Z,175
2016-03-29T13:31:38.953Z,245
2016-03-29T13:32:26.205Z,280
2016-03-29T13:33:26.239Z,330
2016-03-29T13:34:26.242Z,365
2016-03-29T13:35:26.276Z,370
2016-03-29T13:36:26.279Z,395
2016-03-29T13:37:26.329Z,430
2016-03-29T13:38:26.346Z,475
2016-03-29T13:39:26.349Z,495
2016-03-29T13:40:39.149Z,500
2016-03-29T13:41:26.401Z,480
2016-03-29T13:43:42.345Z,440
2016-03-29T13:44:55.334Z,425
2016-03-29T13:45:29.678Z,420
2016-03-29T13:47:44.871Z,515
2016-03-29T13:49:04.065Z,590
2016-03-29T13:49:44.908Z,565
2016-03-29T13:51:10.632Z,430
2016-03-29T13:51:51.195Z,370
2016-03-29T13:52:44.948Z,335
2016-03-29T13:53:45.637Z,265
2016-03-29T13:54:45.093Z,200
2016-03-29T13:55:45.048Z,160
2016-03-29T13:56:51.176Z,105
2016-03-29T13:57:45.133Z,75
2016-03-29T13:59:04.153Z,55
2016-03-29T13:59:45.091Z,45
2016-03-29T14:00:45.125Z,35
2016-03-29T14:01:45.158Z,30
2016-03-29T14:02:45.161Z,25
2016-03-29T14:03:45.210Z,30
2016-03-29T14:04:45.213Z,30
2016-03-29T14:05:45.279Z,45
2016-03-29T14:06:57.987Z,50
2016-03-29T14:07:45.559Z,50
2016-03-29T14:08:58.239Z,60
2016-03-29T14:09:45.489Z,55
2016-03-29T14:11:17.625Z,60
2016-03-29T14:11:58.175Z,65
2016-03-29T14:13:12.490Z,70
2016-03-29T14:13:45.381Z,85
2016-03-29T14:14:45.384Z,160
2016-03-29T14:15:45.386Z,330
2016-03-29T14:16:45.436Z,475
2016-03-29T14:17:45.469Z,545
2016-03-29T14:18:58.334Z,435
2016-03-29T14:19:45.490Z,305
2016-03-29T14:21:36.872Z,205